createdAt,value
2023-05-20T00:02:22.905Z,14.73
2023-05-20T00:04:50.797Z,14.72
2023-05-20T00:07:18.503Z,14.70
2023-05-20T00:09:47.606Z,14.69
2023-05-20T00:12:15.316Z,14.68
2023-05-20T00:14:43.049Z,14.61
2023-05-20T00:17:10.760Z,14.59
2023-05-20T00:19:38.504Z,14.59
2023-05-20T00:22:06.430Z,14.55
2023-05-20T00:24:34.109Z,14.55
2023-05-20T00:27:03.406Z,14.54
2023-05-20T00:29:31.139Z,14.53
2023-05-20T00:31:58.835Z,14.53
2023-05-20T00:34:27.749Z,14.53
2023-05-20T00:36:55.517Z,14.46
2023-05-20T00:39:23.166Z,14.48
2023-05-20T00:41:50.903Z,14.49
2023-05-20T00:44:24.009Z,14.44
2023-05-20T00:46:51.892Z,14.33
2023-05-20T00:49:20.876Z,14.25
2023-05-20T00:51:48.692Z,14.26
2023-05-20T00:54:16.738Z,14.28
2023-05-20T00:56:44.505Z,14.31
2023-05-20T00:59:12.319Z,14.27
2023-05-20T01:01:41.506Z,14.14
2023-05-20T01:04:10.860Z,14.11
2023-05-20T01:06:38.892Z,14.13
2023-05-20T01:09:08.049Z,14.11
2023-05-20T01:11:43.464Z,14.13
2023-05-20T01:14:14.594Z,14.18
2023-05-20T01:16:44.558Z,14.21
2023-05-20T01:19:26.700Z,14.18
2023-05-20T01:21:55.173Z,14.07
2023-05-20T01:24:24.240Z,14.03
2023-05-20T01:26:51.958Z,14.00
2023-05-20T01:29:19.756Z,14.00
2023-05-20T01:31:48.892Z,14.04
2023-05-20T01:34:17.005Z,14.06
2023-05-20T01:36:46.671Z,14.08
2023-05-20T01:39:15.039Z,14.08
2023-05-20T01:41:45.050Z,14.04
2023-05-20T01:44:13.041Z,13.96
2023-05-20T01:46:40.777Z,13.93
2023-05-20T01:49:08.523Z,13.93
2023-05-20T01:51:36.928Z,13.96
2023-05-20T01:54:04.661Z,13.96
2023-05-20T01:56:32.372Z,13.95
2023-05-20T01:59:01.423Z,13.98
2023-05-20T02:01:29.112Z,13.97
2023-05-20T02:03:56.918Z,13.95
2023-05-20T02:06:24.773Z,13.95
2023-05-20T02:08:52.620Z,13.94
2023-05-20T02:11:20.556Z,13.93
2023-05-20T02:13:48.301Z,13.89
2023-05-20T02:16:17.379Z,13.88
2023-05-20T02:18:45.193Z,13.88
2023-05-20T02:21:13.026Z,13.77
2023-05-20T02:23:40.688Z,13.62
2023-05-20T02:26:08.436Z,13.61
2023-05-20T02:28:40.335Z,13.59
2023-05-20T02:31:08.268Z,13.66
2023-05-20T02:33:37.661Z,13.72
2023-05-20T02:36:05.774Z,13.75
2023-05-20T02:38:33.618Z,13.74
2023-05-20T02:41:01.345Z,13.74
2023-05-20T02:43:29.287Z,13.69
2023-05-20T02:45:57.244Z,13.68
2023-05-20T02:48:25.213Z,13.69
2023-05-20T02:50:54.311Z,13.72
2023-05-20T02:53:22.168Z,13.71
2023-05-20T02:55:50.725Z,13.56
2023-05-20T02:58:18.420Z,13.54
2023-05-20T03:00:46.023Z,13.56
2023-05-20T03:03:14.919Z,13.57
2023-05-20T03:05:45.937Z,13.56
2023-05-20T03:08:15.002Z,13.59
2023-05-20T03:10:42.798Z,13.57
2023-05-20T03:13:11.454Z,13.50
2023-05-20T03:15:39.391Z,13.47
2023-05-20T03:18:08.547Z,13.41
2023-05-20T03:20:38.320Z,13.38
2023-05-20T03:23:06.682Z,13.32
2023-05-20T03:25:36.169Z,13.26
2023-05-20T03:28:04.111Z,13.27
2023-05-20T03:30:31.823Z,13.27
2023-05-20T03:32:59.939Z,13.28
2023-05-20T03:35:27.633Z,13.21
2023-05-20T03:37:55.327Z,13.21
2023-05-20T03:40:22.999Z,13.13
2023-05-20T03:42:52.169Z,13.08
2023-05-20T03:45:20.225Z,13.06
2023-05-20T03:47:47.909Z,13.05
2023-05-20T03:50:15.783Z,13.03
2023-05-20T03:52:43.859Z,13.03
2023-05-20T03:55:11.828Z,12.97
2023-05-20T03:57:39.794Z,12.96
2023-05-20T04:00:12.046Z,12.92
2023-05-20T04:02:39.893Z,12.88
2023-05-20T04:05:10.139Z,12.87
2023-05-20T04:07:38.167Z,12.88
2023-05-20T04:10:06.998Z,12.76
2023-05-20T04:12:36.056Z,12.73
2023-05-20T04:15:04.241Z,12.74
2023-05-20T04:17:33.375Z,12.77
2023-05-20T04:20:01.112Z,12.79
2023-05-20T04:22:28.755Z,12.74
2023-05-20T04:24:56.520Z,12.76
2023-05-20T04:27:24.334Z,12.82
2023-05-20T04:29:52.469Z,12.90
2023-05-20T04:32:21.048Z,12.96
2023-05-20T04:34:50.632Z,13.03
2023-05-20T04:37:18.272Z,13.11
2023-05-20T04:39:49.773Z,13.12
2023-05-20T04:42:20.191Z,13.20
2023-05-20T04:44:48.271Z,13.19
2023-05-20T04:47:16.348Z,13.19
2023-05-20T04:49:45.689Z,13.15
2023-05-20T04:52:14.778Z,13.13
2023-05-20T04:54:42.413Z,13.18
2023-05-20T04:57:10.066Z,13.21
2023-05-20T04:59:37.888Z,13.28
2023-05-20T05:02:05.749Z,13.37
2023-05-20T05:04:33.420Z,13.32
2023-05-20T05:07:01.156Z,13.27
2023-05-20T05:09:30.146Z,13.23
2023-05-20T05:11:58.024Z,13.28
2023-05-20T05:14:25.740Z,13.31
2023-05-20T05:16:55.626Z,13.29
2023-05-20T05:19:23.745Z,13.37
2023-05-20T05:21:52.228Z,13.38
2023-05-20T05:24:19.870Z,13.37
2023-05-20T05:26:48.936Z,13.32
2023-05-20T05:29:16.563Z,13.33
2023-05-20T05:31:44.190Z,13.39
2023-05-20T05:34:11.955Z,13.38
2023-05-20T05:36:41.332Z,13.41
2023-05-20T05:39:09.032Z,13.49
2023-05-20T05:41:36.881Z,13.52
2023-05-20T05:44:06.153Z,13.54
2023-05-20T05:46:33.838Z,13.52
2023-05-20T05:49:01.590Z,13.55
2023-05-20T05:51:29.399Z,13.61
2023-05-20T05:53:57.149Z,13.68
2023-05-20T05:56:24.937Z,13.68
2023-05-20T05:58:52.655Z,13.64
2023-05-20T06:01:21.716Z,13.66
2023-05-20T06:03:49.557Z,13.68
2023-05-20T06:06:17.266Z,13.62
2023-05-20T06:08:44.925Z,13.60
2023-05-20T06:11:12.645Z,13.68
2023-05-20T06:13:40.352Z,13.74
2023-05-20T06:16:08.263Z,13.80
2023-05-20T06:18:37.436Z,13.81
2023-05-20T06:21:05.620Z,13.83
2023-05-20T06:23:33.348Z,13.79
2023-05-20T06:26:01.791Z,13.80
2023-05-20T06:28:30.270Z,13.78
2023-05-20T06:30:58.785Z,13.76
2023-05-20T06:33:27.372Z,13.76
2023-05-20T06:35:57.631Z,13.81
2023-05-20T06:38:25.670Z,13.79
2023-05-20T06:40:53.334Z,13.80
2023-05-20T06:43:21.133Z,13.82
2023-05-20T06:45:48.856Z,13.90
2023-05-20T06:48:16.551Z,13.96
2023-05-20T06:50:45.981Z,14.00
2023-05-20T06:53:14.952Z,14.13
2023-05-20T06:55:42.674Z,14.16
2023-05-20T06:58:13.248Z,14.11
2023-05-20T07:00:41.547Z,14.21
2023-05-20T07:03:09.293Z,14.24
2023-05-20T07:05:36.983Z,14.31
2023-05-20T07:08:04.939Z,14.47
2023-05-20T07:10:34.537Z,14.63
2023-05-20T07:13:02.398Z,14.72
2023-05-20T07:15:30.161Z,14.83
2023-05-20T07:17:57.899Z,14.95
2023-05-20T07:20:25.679Z,15.08
2023-05-20T07:22:53.434Z,15.09
2023-05-20T07:25:21.123Z,15.05
2023-05-20T07:27:50.437Z,15.01
2023-05-20T07:30:18.162Z,15.04
2023-05-20T07:32:45.842Z,15.14
2023-05-20T07:35:13.594Z,15.12
2023-05-20T07:37:41.273Z,15.16
2023-05-20T07:40:09.838Z,15.22
2023-05-20T07:42:37.611Z,15.28
2023-05-20T07:45:07.615Z,15.24
2023-05-20T07:47:35.719Z,15.13
2023-05-20T07:50:03.450Z,14.93
2023-05-20T07:52:35.592Z,14.97
2023-05-20T07:55:09.683Z,15.00
2023-05-20T07:57:37.564Z,15.19
2023-05-20T08:00:08.589Z,15.30
2023-05-20T08:02:36.369Z,15.37
2023-05-20T08:05:05.052Z,15.38
2023-05-20T08:07:32.880Z,15.39
2023-05-20T08:10:00.988Z,15.49
2023-05-20T08:12:31.664Z,15.57
2023-05-20T08:14:59.435Z,15.60
2023-05-20T08:17:28.593Z,15.66
2023-05-20T08:19:56.303Z,15.66
2023-05-20T08:22:24.025Z,15.66
2023-05-20T08:24:51.858Z,15.73
2023-05-20T08:27:19.575Z,15.72
2023-05-20T08:29:47.314Z,15.92
2023-05-20T08:32:14.984Z,15.95
2023-05-20T08:34:44.088Z,15.93
2023-05-20T08:37:11.802Z,15.96
2023-05-20T08:39:39.742Z,15.86
2023-05-20T08:42:07.989Z,15.85
2023-05-20T08:44:36.884Z,15.88
2023-05-20T08:47:07.128Z,16.02
2023-05-20T08:49:35.316Z,16.09
2023-05-20T08:52:05.151Z,16.16
2023-05-20T08:54:45.267Z,16.24
2023-05-20T08:57:14.083Z,16.14
2023-05-20T08:59:46.692Z,15.99
2023-05-20T09:02:15.218Z,15.87
2023-05-20T09:04:43.079Z,15.80
2023-05-20T09:07:12.316Z,15.90
2023-05-20T09:09:41.238Z,15.88
2023-05-20T09:12:09.290Z,15.87
2023-05-20T09:14:37.082Z,15.91
2023-05-20T09:17:08.267Z,15.84
2023-05-20T09:19:36.250Z,15.91
2023-05-20T09:22:05.969Z,16.07
2023-05-20T09:24:35.756Z,16.19
2023-05-20T09:27:03.720Z,15.92
2023-05-20T09:29:34.477Z,15.95
2023-05-20T09:32:03.651Z,15.90
2023-05-20T09:34:31.794Z,15.79
2023-05-20T09:37:01.501Z,15.62
2023-05-20T09:39:34.863Z,15.62
2023-05-20T09:42:13.485Z,15.58
2023-05-20T09:44:45.118Z,15.45
2023-05-20T09:47:13.151Z,15.59
2023-05-20T09:49:42.732Z,15.69
2023-05-20T09:52:10.731Z,15.79
2023-05-20T09:54:38.474Z,15.87
2023-05-20T09:57:09.003Z,15.87
2023-05-20T09:59:38.625Z,15.86
2023-05-20T10:02:07.616Z,15.95
2023-05-20T10:04:37.333Z,16.03
2023-05-20T10:07:37.900Z,16.07
2023-05-20T10:10:20.832Z,16.04
2023-05-20T10:13:01.370Z,15.99
2023-05-20T10:15:42.126Z,16.01
2023-05-20T10:18:33.223Z,15.98
2023-05-20T10:21:01.223Z,15.94
2023-05-20T10:23:30.208Z,15.81
2023-05-20T10:25:59.294Z,15.77
2023-05-20T10:28:33.079Z,15.74
2023-05-20T10:31:01.588Z,15.76
2023-05-20T10:33:30.292Z,15.70
2023-05-20T10:35:59.770Z,15.70
2023-05-20T10:38:27.764Z,15.69
2023-05-20T10:40:57.318Z,15.70
2023-05-20T10:43:28.452Z,15.75
2023-05-20T10:46:00.231Z,15.80
2023-05-20T10:48:30.930Z,15.94
2023-05-20T10:51:04.808Z,15.96
2023-05-20T10:53:40.662Z,16.05
2023-05-20T10:56:18.620Z,16.09
2023-05-20T10:58:46.631Z,16.19
2023-05-20T11:01:16.869Z,16.16
2023-05-20T11:03:47.022Z,16.30
2023-05-20T11:06:16.866Z,16.26
2023-05-20T11:08:47.564Z,16.37
2023-05-20T11:11:16.273Z,16.26
2023-05-20T11:13:44.322Z,16.29
2023-05-20T11:16:12.711Z,16.40
2023-05-20T11:18:41.837Z,16.29
2023-05-20T11:21:09.683Z,16.18
2023-05-20T11:23:40.491Z,16.33
2023-05-20T11:26:08.813Z,16.43
2023-05-20T11:28:37.338Z,16.37
2023-05-20T11:31:06.025Z,16.43
2023-05-20T11:33:34.068Z,16.54
2023-05-20T11:36:06.417Z,16.59
2023-05-20T11:38:36.695Z,16.46
2023-05-20T11:41:04.440Z,16.47
2023-05-20T11:43:34.865Z,16.73
2023-05-20T11:46:02.800Z,16.93
2023-05-20T11:48:30.738Z,17.01
2023-05-20T11:51:00.016Z,17.06
2023-05-20T11:53:31.724Z,16.89
2023-05-20T11:56:01.322Z,16.96
2023-05-20T11:58:31.332Z,16.87
2023-05-20T12:01:13.361Z,16.72
2023-05-20T12:03:47.768Z,16.68
2023-05-20T12:06:15.839Z,16.69
2023-05-20T12:08:44.921Z,16.79
2023-05-20T12:11:12.666Z,16.86
2023-05-20T12:13:40.733Z,17.02
2023-05-20T12:16:08.680Z,17.13
2023-05-20T12:18:36.402Z,17.14
2023-05-20T12:21:04.266Z,17.03
2023-05-20T12:23:34.062Z,17.05
2023-05-20T12:26:03.491Z,17.12
2023-05-20T12:28:32.069Z,17.04
2023-05-20T12:30:59.956Z,16.89
2023-05-20T12:33:27.742Z,16.92
2023-05-20T12:35:55.655Z,16.96
2023-05-20T12:38:23.446Z,16.88
2023-05-20T12:40:51.257Z,16.80
2023-05-20T12:43:20.388Z,16.78
2023-05-20T12:45:48.735Z,16.96
2023-05-20T12:48:16.743Z,16.99
2023-05-20T12:50:44.601Z,17.06
2023-05-20T12:53:12.415Z,16.97
2023-05-20T12:55:40.600Z,17.07
2023-05-20T12:58:11.235Z,17.06
2023-05-20T13:00:40.429Z,17.12
2023-05-20T13:03:08.234Z,17.17
2023-05-20T13:05:35.966Z,17.24
2023-05-20T13:08:03.650Z,17.28
2023-05-20T13:10:33.996Z,17.15
2023-05-20T13:13:02.185Z,17.28
2023-05-20T13:15:30.082Z,17.43
2023-05-20T13:18:01.193Z,17.63
2023-05-20T13:20:29.238Z,17.96
2023-05-20T13:22:57.144Z,18.01
2023-05-20T13:25:24.941Z,18.08
2023-05-20T13:27:52.889Z,18.07
2023-05-20T13:30:20.699Z,18.02
2023-05-20T13:32:48.759Z,17.88
2023-05-20T13:35:18.200Z,17.82
2023-05-20T13:37:45.933Z,17.77
2023-05-20T13:40:14.603Z,17.81
2023-05-20T13:42:42.784Z,17.82
2023-05-20T13:45:11.733Z,17.88
2023-05-20T13:47:39.784Z,17.94
2023-05-20T13:50:09.006Z,17.82
2023-05-20T13:52:38.261Z,18.06
2023-05-20T13:55:07.093Z,17.81
2023-05-20T13:57:36.077Z,17.89
2023-05-20T14:00:04.420Z,17.99
2023-05-20T14:02:32.328Z,17.94
2023-05-20T14:05:00.562Z,17.82
2023-05-20T14:07:28.315Z,17.52
2023-05-20T14:09:57.361Z,17.30
2023-05-20T14:12:25.614Z,17.44
2023-05-20T14:14:53.355Z,17.40
2023-05-20T14:17:21.203Z,17.49
2023-05-20T14:19:48.972Z,17.53
2023-05-20T14:22:16.694Z,17.44
2023-05-20T14:24:44.500Z,17.49
2023-05-20T14:27:14.319Z,17.48
2023-05-20T14:29:42.058Z,17.43
2023-05-20T14:32:11.671Z,17.33
2023-05-20T14:34:39.425Z,17.30
2023-05-20T14:37:09.938Z,17.35
2023-05-20T14:39:37.833Z,17.41
2023-05-20T14:42:07.163Z,17.26
2023-05-20T14:44:36.371Z,17.30
2023-05-20T14:47:05.014Z,17.26
2023-05-20T14:49:33.007Z,17.24
2023-05-20T14:52:00.757Z,17.12
2023-05-20T14:54:28.680Z,17.04
2023-05-20T14:56:56.410Z,17.13
2023-05-20T14:59:26.505Z,17.15
2023-05-20T15:01:55.801Z,17.21
2023-05-20T15:04:23.658Z,17.25
2023-05-20T15:06:52.338Z,17.26
2023-05-20T15:09:20.821Z,17.13
2023-05-20T15:11:48.788Z,17.21
2023-05-20T15:14:16.647Z,17.11
2023-05-20T15:16:45.732Z,17.18
2023-05-20T15:19:15.231Z,17.19
2023-05-20T15:21:43.059Z,17.14
2023-05-20T15:24:10.855Z,17.13
2023-05-20T15:26:40.151Z,17.17
2023-05-20T15:29:07.965Z,17.18
2023-05-20T15:31:35.790Z,17.19
2023-05-20T15:34:03.622Z,17.22
2023-05-20T15:36:33.277Z,17.24
2023-05-20T15:39:02.068Z,17.24
2023-05-20T15:41:32.628Z,17.23
2023-05-20T15:44:00.660Z,17.24
2023-05-20T15:46:28.766Z,17.28
2023-05-20T15:48:57.936Z,17.21
2023-05-20T15:51:25.704Z,17.19
2023-05-20T15:53:54.808Z,17.24
2023-05-20T15:56:23.320Z,17.25
2023-05-20T15:58:51.421Z,17.23
2023-05-20T16:01:19.252Z,17.26
2023-05-20T16:03:47.254Z,17.33
2023-05-20T16:06:15.719Z,17.34
2023-05-20T16:08:43.692Z,17.37
2023-05-20T16:11:12.837Z,17.41
2023-05-20T16:13:40.740Z,17.42
2023-05-20T16:16:08.621Z,17.44
2023-05-20T16:18:36.398Z,17.39
2023-05-20T16:21:07.832Z,17.27
2023-05-20T16:23:35.669Z,17.29
2023-05-20T16:26:04.141Z,17.29
2023-05-20T16:28:33.227Z,17.27
2023-05-20T16:31:01.157Z,17.29
2023-05-20T16:33:28.898Z,17.31
2023-05-20T16:35:57.035Z,17.31
2023-05-20T16:38:24.861Z,17.35
2023-05-20T16:40:52.545Z,17.33
2023-05-20T16:43:20.436Z,17.30
2023-05-20T16:45:49.741Z,17.26
2023-05-20T16:48:18.368Z,17.26
2023-05-20T16:50:46.157Z,17.27
2023-05-20T16:53:16.220Z,17.24
2023-05-20T16:55:44.257Z,17.21
2023-05-20T16:58:12.298Z,17.21
2023-05-20T17:00:44.750Z,17.25
2023-05-20T17:03:14.335Z,17.26
2023-05-20T17:05:43.498Z,17.26
2023-05-20T17:08:11.296Z,17.26
2023-05-20T17:10:39.082Z,17.30
2023-05-20T17:13:06.961Z,17.29
2023-05-20T17:15:37.074Z,17.31
2023-05-20T17:18:05.321Z,17.26
2023-05-20T17:20:34.703Z,17.26
2023-05-20T17:23:03.262Z,17.28
2023-05-20T17:25:31.716Z,17.18
2023-05-20T17:27:59.506Z,17.14
2023-05-20T17:30:28.087Z,17.13
2023-05-20T17:32:57.458Z,17.15
2023-05-20T17:35:26.498Z,17.13
2023-05-20T17:37:56.186Z,17.14
2023-05-20T17:40:24.036Z,17.08
2023-05-20T17:42:52.239Z,17.04
2023-05-20T17:45:20.202Z,17.08
2023-05-20T17:47:48.152Z,17.05
2023-05-20T17:50:16.594Z,17.05
2023-05-20T17:52:45.142Z,17.09
2023-05-20T17:55:14.535Z,17.09
2023-05-20T17:57:42.552Z,17.08
2023-05-20T18:00:13.037Z,17.07
2023-05-20T18:02:41.146Z,17.05
2023-05-20T18:05:12.180Z,17.03
2023-05-20T18:07:42.692Z,17.03
2023-05-20T18:10:12.035Z,17.02
2023-05-20T18:12:42.582Z,17.03
2023-05-20T18:15:10.990Z,17.05
2023-05-20T18:17:40.580Z,17.04
2023-05-20T18:20:10.880Z,17.05
2023-05-20T18:22:40.237Z,17.04
2023-05-20T18:25:09.163Z,17.01
2023-05-20T18:27:37.414Z,16.99
2023-05-20T18:30:08.425Z,16.99
2023-05-20T18:32:36.467Z,16.99
2023-05-20T18:35:04.491Z,16.99
2023-05-20T18:37:33.067Z,16.97
2023-05-20T18:40:01.441Z,16.97
2023-05-20T18:42:29.385Z,16.97
2023-05-20T18:44:59.126Z,16.98
2023-05-20T18:47:28.307Z,16.94
2023-05-20T18:49:56.743Z,16.94
2023-05-20T18:52:24.541Z,16.97
2023-05-20T18:54:52.298Z,16.95
2023-05-20T18:57:20.385Z,16.92
2023-05-20T18:59:48.280Z,16.92
2023-05-20T19:02:17.348Z,16.95
2023-05-20T19:04:46.789Z,16.95
2023-05-20T19:07:15.207Z,16.94
2023-05-20T19:09:42.945Z,16.97
2023-05-20T19:12:10.984Z,16.94
2023-05-20T19:14:38.793Z,16.91
2023-05-20T19:17:06.898Z,16.88
2023-05-20T19:19:35.066Z,16.82
2023-05-20T19:22:04.209Z,16.82
2023-05-20T19:24:32.541Z,16.82
2023-05-20T19:27:03.863Z,16.82
2023-05-20T19:29:31.592Z,16.82
2023-05-20T19:32:00.325Z,16.78
2023-05-20T19:34:28.035Z,16.76
2023-05-20T19:36:57.186Z,16.76
2023-05-20T19:39:26.724Z,16.75
2023-05-20T19:41:54.561Z,16.75
2023-05-20T19:44:24.601Z,16.77
2023-05-20T19:46:52.768Z,16.78
2023-05-20T19:49:20.697Z,16.75
2023-05-20T19:51:48.825Z,16.72
2023-05-20T19:54:16.587Z,16.71
2023-05-20T19:56:46.325Z,16.65
2023-05-20T19:59:17.616Z,16.61
2023-05-20T20:01:45.620Z,16.54
2023-05-20T20:04:14.080Z,16.53
2023-05-20T20:06:42.877Z,16.53
2023-05-20T20:09:11.041Z,16.53
2023-05-20T20:11:39.063Z,16.47
2023-05-20T20:14:08.297Z,16.42
2023-05-20T20:16:36.009Z,16.39
2023-05-20T20:19:04.913Z,16.38
2023-05-20T20:21:32.797Z,16.41
2023-05-20T20:24:03.316Z,16.42
2023-05-20T20:26:31.262Z,16.40
2023-05-20T20:28:59.044Z,16.36
2023-05-20T20:31:28.474Z,16.35
2023-05-20T20:33:56.656Z,16.33
2023-05-20T20:36:24.654Z,16.29
2023-05-20T20:38:52.705Z,16.27
2023-05-20T20:41:22.993Z,16.26
2023-05-20T20:43:51.166Z,16.28
2023-05-20T20:46:19.019Z,16.24
2023-05-20T20:48:48.324Z,16.19
2023-05-20T20:51:17.080Z,16.16
2023-05-20T20:53:46.572Z,16.10
2023-05-20T20:56:14.864Z,16.07
2023-05-20T20:58:44.983Z,16.05
2023-05-20T21:01:17.119Z,16.06
2023-05-20T21:03:45.946Z,16.06
2023-05-20T21:06:15.145Z,16.06
2023-05-20T21:08:43.417Z,16.03
2023-05-20T21:11:11.374Z,15.98
2023-05-20T21:13:39.928Z,15.96
2023-05-20T21:16:07.712Z,15.96
2023-05-20T21:18:35.917Z,15.95
2023-05-20T21:21:04.400Z,15.92
2023-05-20T21:23:33.648Z,15.92
2023-05-20T21:26:01.502Z,15.95
2023-05-20T21:28:29.360Z,15.99
2023-05-20T21:30:57.166Z,15.99
2023-05-20T21:33:25.043Z,15.98
2023-05-20T21:35:52.855Z,15.96
2023-05-20T21:38:20.614Z,15.94
2023-05-20T21:40:49.784Z,15.92
2023-05-20T21:43:17.801Z,15.91
2023-05-20T21:45:46.681Z,15.88
2023-05-20T21:48:14.443Z,15.90
2023-05-20T21:50:42.349Z,15.86
2023-05-20T21:53:10.117Z,15.84
2023-05-20T21:55:38.515Z,15.81
2023-05-20T21:58:07.751Z,15.77
2023-05-20T22:00:36.339Z,15.72
2023-05-20T22:03:04.202Z,15.66
2023-05-20T22:05:34.853Z,15.65
2023-05-20T22:08:02.985Z,15.65
2023-05-20T22:10:36.448Z,15.65
2023-05-20T22:13:04.587Z,15.62
2023-05-20T22:15:34.226Z,15.61
2023-05-20T22:18:06.803Z,15.56
2023-05-20T22:20:35.529Z,15.55
2023-05-20T22:23:04.516Z,15.54
2023-05-20T22:25:32.273Z,15.53
2023-05-20T22:28:00.042Z,15.49
2023-05-20T22:30:27.905Z,15.46
2023-05-20T22:32:58.327Z,15.42
2023-05-20T22:35:26.228Z,15.38
2023-05-20T22:37:54.781Z,15.38
2023-05-20T22:40:22.721Z,15.39
2023-05-20T22:42:50.565Z,15.39
2023-05-20T22:45:18.823Z,15.39
2023-05-20T22:47:47.140Z,15.40
2023-05-20T22:50:16.490Z,15.37
2023-05-20T22:52:44.369Z,15.35
2023-05-20T22:55:12.670Z,15.32
2023-05-20T22:57:40.513Z,15.32
2023-05-20T23:00:10.908Z,15.29
2023-05-20T23:02:41.476Z,15.26
2023-05-20T23:05:11.168Z,15.23
2023-05-20T23:07:40.359Z,15.19
2023-05-20T23:10:08.953Z,15.19
2023-05-20T23:12:37.096Z,15.19
2023-05-20T23:15:05.081Z,15.17
2023-05-20T23:17:32.877Z,15.15
2023-05-20T23:20:00.533Z,15.08
2023-05-20T23:22:28.275Z,15.06
2023-05-20T23:24:57.665Z,15.06
2023-05-20T23:27:26.880Z,15.04
2023-05-20T23:29:54.666Z,15.06
2023-05-20T23:32:22.402Z,15.04
2023-05-20T23:34:51.335Z,15.04
2023-05-20T23:37:19.973Z,15.03
2023-05-20T23:39:47.741Z,14.99
2023-05-20T23:42:16.931Z,14.97
2023-05-20T23:44:45.838Z,14.96
2023-05-20T23:47:14.193Z,14.95
2023-05-20T23:49:42.510Z,14.96
2023-05-20T23:52:10.246Z,14.95
2023-05-20T23:54:37.994Z,14.95
2023-05-20T23:57:10.127Z,14.94
2023-05-20T23:59:39.458Z,14.96
